Time;durP1;ratioP1;P1;durP2;ratioP2;P2;SDS_P1;SDS_P2;PMS_P1;PMS_P2;Temp;Humidity;BMP_temperature;BMP_pressure;BME280_temperature;BME280_humidity;BME280_pressure;Samples;Min_cycle;Max_cycle;Signal;HPM_P1;HPM_P2
2022/05/06 00:00:25;;;;;;;1.27;1.17;;;;;;;16.19;45.43;101826.19;5093435;28;20190;-81
2022/05/06 00:02:55;;;;;;;1.58;1.48;;;;;;;16.16;45.41;101834.22;5100785;28;20229;-82
2022/05/06 00:05:26;;;;;;;1.27;1.20;;;;;;;16.11;45.72;101828.22;5130253;28;20035;-82
2022/05/06 00:07:56;;;;;;;2.53;1.85;;;;;;;16.06;45.65;101825.72;5132225;28;20042;-82
2022/05/06 00:10:27;;;;;;;1.33;1.23;;;;;;;15.99;45.85;101827.72;5132006;28;20050;-81
2022/05/06 00:13:00;;;;;;;1.02;1.02;;;;;;;15.95;45.74;101819.94;5110708;28;20023;-81
2022/05/06 00:15:31;;;;;;;2.85;1.92;;;;;;;15.94;45.66;101834.09;5084050;28;20058;-82
2022/05/06 00:18:02;;;;;;;1.35;1.25;;;;;;;15.87;45.83;101828.97;5092205;28;20030;-80
2022/05/06 00:20:35;;;;;;;1.85;0.88;;;;;;;15.88;46.19;101832.50;5107068;28;20043;-79
2022/05/06 00:23:06;;;;;;;;;;;;;;;15.85;46.17;101830.81;5092802;28;20058;-79
2022/05/06 00:25:36;;;;;;;1.65;1.55;;;;;;;15.81;46.05;101825.63;5091437;28;19953;-80
2022/05/06 00:28:07;;;;;;;0.95;0.63;;;;;;;15.83;46.21;101834.38;5127277;28;20401;-79
2022/05/06 00:30:37;;;;;;;1.15;1.10;;;;;;;15.83;46.44;101839.66;5091438;28;20101;-80
2022/05/06 00:33:09;;;;;;;1.58;1.48;;;;;;;15.78;46.35;101838.94;5107310;28;20023;-80
2022/05/06 00:35:43;;;;;;;1.00;1.00;;;;;;;15.74;46.29;101841.69;5090952;28;20375;-79
2022/05/06 00:38:13;;;;;;;1.20;1.10;;;;;;;15.67;46.19;101850.72;5111118;28;20564;-80
2022/05/06 00:40:44;;;;;;;1.35;1.20;;;;;;;15.64;46.49;101850.84;5097215;28;20026;-80
2022/05/06 00:43:15;;;;;;;2.38;1.17;;;;;;;15.62;46.24;101842.06;5097683;28;20034;-80
2022/05/06 00:45:54;;;;;;;3.42;1.83;;;;;;;15.57;46.34;101849.28;5099949;28;20318;-80
2022/05/06 00:48:30;;;;;;;1.00;1.00;;;;;;;15.53;46.61;101837.94;5099579;28;20109;-80
2022/05/06 00:51:03;;;;;;;1.15;1.05;;;;;;;15.56;46.86;101842.28;5100436;28;20026;-80
2022/05/06 00:53:35;;;;;;;5.93;2.05;;;;;;;15.42;46.91;101840.88;5113067;28;20031;-80
2022/05/06 00:56:11;;;;;;;1.10;1.10;;;;;;;15.39;47.19;101841.00;5108372;28;20505;-80
2022/05/06 00:58:45;;;;;;;2.15;1.55;;;;;;;15.37;46.87;101842.81;5097255;28;20266;-80
2022/05/06 01:01:16;;;;;;;13.75;2.88;;;;;;;15.32;46.70;101844.72;5123839;28;20106;-80
2022/05/06 01:03:47;;;;;;;0.88;0.88;;;;;;;15.26;46.89;101834.31;5107265;28;20039;-81
2022/05/06 01:06:18;;;;;;;5.57;2.65;;;;;;;15.25;47.08;101846.69;5108723;28;20050;-80
2022/05/06 01:08:49;;;;;;;3.35;1.65;;;;;;;15.21;47.07;101847.66;5089961;28;20054;-80
2022/05/06 01:11:23;;;;;;;2.05;1.88;;;;;;;15.17;46.96;101850.44;5091865;28;20030;-80
2022/05/06 01:13:55;;;;;;;1.83;1.70;;;;;;;15.11;46.81;101847.06;5090271;28;20032;-81
2022/05/06 01:16:32;;;;;;;3.03;2.50;;;;;;;15.11;47.17;101852.34;5090162;28;20430;-80
2022/05/06 01:19:04;;;;;;;1.60;1.50;;;;;;;15.06;46.80;101856.91;5091304;28;20038;-80
2022/05/06 01:21:38;;;;;;;3.95;1.65;;;;;;;15.01;46.93;101850.88;5110157;28;20039;-80
2022/05/06 01:24:08;;;;;;;5.82;2.30;;;;;;;15.00;47.26;101854.41;5115692;28;20035;-80
2022/05/06 01:26:59;;;;;;;1.55;1.45;;;;;;;14.97;47.09;101859.81;5104531;28;20057;-80
2022/05/06 01:29:33;;;;;;;1.45;1.35;;;;;;;14.98;47.71;101858.91;5091477;28;20042;-80
2022/05/06 01:32:04;;;;;;;1.85;1.65;;;;;;;14.97;47.62;101859.81;5108365;28;20027;-82
2022/05/06 01:34:39;;;;;;;2.28;1.65;;;;;;;14.91;47.16;101859.97;5090611;28;20038;-81
2022/05/06 01:37:13;;;;;;;4.90;1.48;;;;;;;14.84;47.56;101863.66;5138682;28;20553;-81
2022/05/06 01:39:48;;;;;;;1.38;1.23;;;;;;;14.81;48.26;101863.75;5108931;28;20039;-81
2022/05/06 01:42:22;;;;;;;2.03;1.90;;;;;;;14.79;47.54;101869.94;5131196;28;20043;-81
2022/05/06 01:44:56;;;;;;;;;;;;;;;14.75;47.76;101865.66;5132196;28;20226;-81
2022/05/06 01:47:29;;;;;;;5.50;2.55;;;;;;;14.73;47.90;101856.91;5132260;28;19910;-80
2022/05/06 01:50:00;;;;;;;9.70;2.20;;;;;;;14.70;47.91;101859.63;5093594;28;20042;-79
2022/05/06 01:52:31;;;;;;;2.42;2.22;;;;;;;14.69;47.90;101865.81;5089643;28;20035;-81
2022/05/06 01:55:01;;;;;;;2.03;1.83;;;;;;;14.64;47.74;101859.75;5098492;28;20035;-81
2022/05/06 01:57:32;;;;;;;9.45;3.00;;;;;;;14.60;47.99;101858.09;5091265;28;20023;-81
2022/05/06 02:00:05;;;;;;;11.25;3.20;;;;;;;14.54;48.29;101859.13;5107269;28;20498;-80
2022/05/06 02:02:35;;;;;;;1.42;1.38;;;;;;;14.56;47.90;101864.38;5106124;28;20038;-81
2022/05/06 02:05:19;;;;;;;2.72;2.53;;;;;;;14.52;48.10;101857.41;5137697;28;20421;-81
2022/05/06 02:07:54;;;;;;;2.42;2.25;;;;;;;14.50;48.15;101852.19;5106690;28;20034;-81
2022/05/06 02:10:27;;;;;;;3.63;1.77;;;;;;;14.51;48.31;101860.97;5107165;28;20121;-81
2022/05/06 02:12:59;;;;;;;8.07;3.15;;;;;;;14.47;48.47;101855.78;5108380;28;20030;-81
2022/05/06 02:15:30;;;;;;;4.40;2.50;;;;;;;14.43;48.25;101856.75;5092886;28;20039;-80
2022/05/06 02:18:00;;;;;;;7.15;1.92;;;;;;;14.37;48.12;101861.34;5111025;28;20062;-80
2022/05/06 02:20:31;;;;;;;1.73;1.63;;;;;;;14.31;48.66;101864.97;5124086;28;20027;-81
2022/05/06 02:23:02;;;;;;;2.25;1.67;;;;;;;14.31;48.34;101864.97;5095679;28;20027;-80
2022/05/06 02:25:32;;;;;;;2.03;1.60;;;;;;;14.27;48.44;101861.56;5125455;28;20049;-81
2022/05/06 02:28:03;;;;;;;1.13;1.10;;;;;;;14.25;48.39;101867.78;5095939;28;20533;-81
2022/05/06 02:33:25;;;;;;;10.18;3.00;;;;;;;14.20;49.03;101864.38;5111641;28;20500;-80
2022/05/06 02:35:59;;;;;;;;;;;;;;;14.17;49.30;101866.16;5093116;28;20034;-81
2022/05/06 02:38:33;;;;;;;2.33;2.20;;;;;;;14.12;48.39;101860.16;5108502;28;19918;-81
2022/05/06 02:41:03;;;;;;;8.30;2.78;;;;;;;14.07;48.67;101867.31;5138107;23;20041;-86
2022/05/06 02:43:34;;;;;;;0.60;0.60;;;;;;;14.06;49.26;101865.56;5081220;28;20497;-85
2022/05/06 02:46:04;;;;;;;2.85;1.70;;;;;;;14.07;49.39;101863.78;5081001;29;20164;-85
2022/05/06 02:48:35;;;;;;;1.80;1.70;;;;;;;14.03;49.18;101862.13;5066297;29;20035;-85
2022/05/06 02:51:05;;;;;;;2.60;1.80;;;;;;;13.96;49.09;101859.66;5087648;29;20126;-84
2022/05/06 02:53:36;;;;;;;2.15;2.00;;;;;;;13.92;49.49;101851.84;5103770;29;20046;-84
2022/05/06 02:56:07;;;;;;;7.93;3.53;;;;;;;13.94;49.80;101857.94;5077183;29;20063;-85
2022/05/06 02:58:38;;;;;;;2.80;2.55;;;;;;;13.90;49.09;101858.91;5072978;29;20062;-85
2022/05/06 03:01:09;;;;;;;5.90;3.50;;;;;;;13.84;49.36;101860.78;5070788;29;20134;-85
2022/05/06 03:03:42;;;;;;;0.75;0.75;;;;;;;13.83;49.75;101858.19;5063826;29;20053;-85
2022/05/06 03:06:15;;;;;;;5.13;1.85;;;;;;;13.82;49.47;101854.69;5094711;29;20397;-85
2022/05/06 03:08:45;;;;;;;2.63;1.95;;;;;;;13.83;49.81;101858.19;5079234;29;20719;-86
2022/05/06 03:11:16;;;;;;;4.90;1.70;;;;;;;13.72;49.89;101847.03;5067355;29;20023;-85
2022/05/06 03:13:46;;;;;;;1.35;1.30;;;;;;;13.67;49.95;101857.66;5066223;29;20129;-85
2022/05/06 03:16:17;;;;;;;0.75;0.75;;;;;;;13.67;50.10;101855.88;5082772;29;20126;-85
2022/05/06 03:18:47;;;;;;;3.20;2.72;;;;;;;13.68;50.17;101855.00;5068115;29;20043;-85
2022/05/06 03:21:18;;;;;;;1.83;1.73;;;;;;;13.71;50.25;101851.41;5084718;29;20120;-85
2022/05/06 03:23:53;;;;;;;4.43;3.03;;;;;;;13.64;49.85;101853.31;5064523;29;20113;-85
2022/05/06 03:26:23;;;;;;;1.30;1.30;;;;;;;13.59;50.35;101855.19;5083522;29;20190;-84
2022/05/06 03:28:57;;;;;;;3.35;2.10;;;;;;;13.59;50.37;101859.59;5074487;28;20384;-84
2022/05/06 03:31:28;;;;;;;1.65;1.48;;;;;;;13.52;50.07;101861.50;5087313;28;20774;-85
2022/05/06 03:33:59;;;;;;;1.58;1.48;;;;;;;13.48;49.79;101854.53;5102198;28;20031;-85
2022/05/06 03:36:29;;;;;;;1.95;1.85;;;;;;;13.46;50.61;101859.84;5103986;28;20023;-85
2022/05/06 03:39:03;;;;;;;2.00;1.63;;;;;;;13.44;50.13;101856.38;5100692;28;20110;-85
2022/05/06 03:41:33;;;;;;;;;;;;;;;13.42;50.41;101855.56;5089818;28;20431;-86
2022/05/06 03:44:08;;;;;;;2.55;1.48;;;;;;;13.42;50.36;101858.19;5104605;28;20346;-85
2022/05/06 03:46:38;;;;;;;3.33;2.30;;;;;;;13.40;50.37;101867.00;5098403;28;20034;-85
2022/05/06 03:49:09;;;;;;;6.93;3.75;;;;;;;13.38;50.28;101864.38;5132612;28;20422;-85
2022/05/06 03:51:39;;;;;;;1.83;1.67;;;;;;;13.37;50.46;101870.53;5087720;28;20083;-85
2022/05/06 03:54:10;;;;;;;2.28;2.05;;;;;;;13.33;50.81;101875.00;5085382;28;20023;-85
2022/05/06 03:56:40;;;;;;;2.08;1.98;;;;;;;13.32;50.46;101861.88;5116026;28;20079;-85
2022/05/06 03:59:11;;;;;;;3.63;3.33;;;;;;;13.26;51.01;101854.97;5096803;28;20027;-85
2022/05/06 04:01:41;;;;;;;3.80;3.05;;;;;;;13.19;51.07;101866.53;5111611;28;20300;-85
2022/05/06 04:04:12;;;;;;;5.20;2.70;;;;;;;13.19;50.54;101866.53;5105533;28;20026;-85
2022/05/06 04:06:42;;;;;;;6.68;3.50;;;;;;;13.19;50.91;101864.75;5088200;28;20063;-85
2022/05/06 04:09:13;;;;;;;2.65;2.25;;;;;;;13.19;51.13;101867.38;5081835;28;20039;-85
2022/05/06 04:11:43;;;;;;;20.23;2.55;;;;;;;13.19;50.97;101870.00;5103221;28;20540;-85
2022/05/06 04:14:14;;;;;;;3.50;2.65;;;;;;;13.15;51.15;101873.63;5087755;28;20465;-86
2022/05/06 04:16:45;;;;;;;5.00;2.63;;;;;;;13.08;51.05;101874.63;5083762;28;20023;-85
2022/05/06 04:19:15;;;;;;;9.05;3.80;;;;;;;13.11;50.97;101871.06;5107289;28;20046;-86
2022/05/06 04:24:38;;;;;;;4.22;3.08;;;;;;;13.07;51.15;101872.91;5103467;28;20061;-85
2022/05/06 04:27:09;;;;;;;2.92;2.65;;;;;;;13.04;50.99;101876.47;5095839;28;20102;-85
2022/05/06 04:29:39;;;;;;;1.75;1.63;;;;;;;13.02;51.22;101874.72;5116921;28;20046;-85
2022/05/06 04:32:10;;;;;;;1.33;1.23;;;;;;;12.99;50.86;101885.34;5085138;28;20045;-85
2022/05/06 04:34:40;;;;;;;28.52;6.22;;;;;;;12.94;50.89;101882.78;5101044;28;20572;-85
2022/05/06 04:37:11;;;;;;;6.93;3.10;;;;;;;12.97;51.45;101885.38;5100573;28;20502;-86
2022/05/06 04:39:41;;;;;;;4.20;3.83;;;;;;;12.91;51.30;101898.66;5107248;28;20043;-86
2022/05/06 04:42:12;;;;;;;19.73;5.32;;;;;;;12.90;52.24;101892.53;5116871;28;20104;-86
2022/05/06 04:44:42;;;;;;;3.78;3.35;;;;;;;12.85;51.59;101899.63;5127027;28;20043;-86
2022/05/06 04:47:13;;;;;;;4.57;3.53;;;;;;;12.84;51.68;101903.19;5086207;28;20019;-86
2022/05/06 04:49:43;;;;;;;3.97;3.42;;;;;;;12.86;52.33;101901.38;5089591;28;20163;-85
2022/05/06 04:52:14;;;;;;;6.38;3.80;;;;;;;12.81;52.29;101905.84;5114646;28;20023;-85
2022/05/06 04:54:44;;;;;;;4.63;3.67;;;;;;;12.82;52.13;101910.22;5106053;28;20465;-85
2022/05/06 04:57:15;;;;;;;2.83;2.63;;;;;;;12.83;52.65;101916.34;5107906;28;20033;-86
2022/05/06 04:59:47;;;;;;;3.53;3.22;;;;;;;12.86;53.19;101916.31;5093996;28;20976;-85
2022/05/06 05:02:18;;;;;;;11.88;3.13;;;;;;;12.82;53.17;101920.75;5094268;28;21028;-85
2022/05/06 05:04:52;;;;;;;3.95;3.60;;;;;;;12.75;53.61;101917.34;5096363;28;20353;-85
2022/05/06 05:07:23;;;;;;;5.63;3.60;;;;;;;12.88;53.75;101923.28;5109086;28;20154;-85
2022/05/06 05:09:54;;;;;;;5.20;4.28;;;;;;;12.88;54.02;101920.66;5107613;28;20041;-85
2022/05/06 05:12:24;;;;;;;3.60;2.35;;;;;;;12.91;54.96;101925.88;5092826;28;20026;-85
2022/05/06 05:14:55;;;;;;;7.63;3.88;;;;;;;12.85;54.04;101923.31;5096558;28;20050;-86
2022/05/06 05:17:25;;;;;;;3.88;3.03;;;;;;;12.78;55.95;101924.31;5109440;28;20035;-86
2022/05/06 05:19:56;;;;;;;3.03;2.83;;;;;;;12.80;56.58;101925.19;5101782;28;20494;-86
2022/05/06 05:22:26;;;;;;;2.83;2.63;;;;;;;12.86;57.71;101922.44;5087364;28;20188;-85
2022/05/06 05:24:57;;;;;;;7.97;4.80;;;;;;;12.83;55.61;101917.25;5104406;28;20091;-86
2022/05/06 05:27:27;;;;;;;3.90;3.53;;;;;;;12.88;55.12;101925.91;5107343;28;20049;-86
2022/05/06 05:30:10;;;;;;;6.57;4.78;;;;;;;12.80;59.02;101932.22;5094078;28;20067;-86
2022/05/06 05:32:40;;;;;;;21.83;5.85;;;;;;;12.82;57.84;101931.31;5118981;28;20177;-85
2022/05/06 05:35:11;;;;;;;4.53;3.33;;;;;;;12.88;57.69;101935.59;5103199;28;20045;-86
2022/05/06 05:37:41;;;;;;;11.55;4.03;;;;;;;12.88;58.20;101941.72;5104264;28;20023;-86
2022/05/06 05:40:12;;;;;;;3.88;2.60;;;;;;;12.83;59.99;101933.03;5103711;28;20035;-86
2022/05/06 05:42:43;;;;;;;8.32;3.90;;;;;;;12.84;59.25;101933.91;5125527;28;20654;-86
2022/05/06 05:48:20;;;;;;;3.08;2.80;;;;;;;12.88;59.43;101936.44;5118275;28;20321;-86
2022/05/06 05:50:51;;;;;;;7.32;3.88;;;;;;;12.80;59.17;101933.09;5120899;28;20117;-86
2022/05/06 05:53:21;;;;;;;11.73;6.75;;;;;;;12.94;61.64;101926.69;5117873;28;20090;-86
2022/05/06 05:55:52;;;;;;;2.58;2.38;;;;;;;12.87;59.78;101933.84;5089682;28;20047;-85
2022/05/06 05:58:23;;;;;;;4.32;3.67;;;;;;;12.90;63.10;101939.94;5088414;28;20030;-86
2022/05/06 06:00:54;;;;;;;2.95;2.75;;;;;;;12.76;63.38;101934.03;5104255;28;20560;-85
2022/05/06 06:03:24;;;;;;;3.65;3.33;;;;;;;12.85;60.82;101938.28;5112103;28;20030;-87
2022/05/06 06:05:55;;;;;;;3.08;2.88;;;;;;;13.11;59.35;101935.16;5109201;28;20073;-86
2022/05/06 06:08:25;;;;;;;4.43;3.55;;;;;;;13.02;58.99;101937.97;5107762;28;20034;-86
2022/05/06 06:10:56;;;;;;;4.97;3.08;;;;;;;13.06;58.59;101942.28;5090079;28;20553;-86
2022/05/06 06:13:27;;;;;;;5.60;3.50;;;;;;;13.16;58.06;101946.50;5127588;28;20026;-86
2022/05/06 06:15:58;;;;;;;5.95;5.15;;;;;;;13.20;57.70;101942.91;5105754;28;20023;-86
2022/05/06 06:18:31;;;;;;;6.57;3.85;;;;;;;13.20;58.12;101945.53;5105528;28;20103;-86
2022/05/06 06:21:07;;;;;;;5.65;4.38;;;;;;;13.22;60.78;101946.41;5089786;29;20063;-86
2022/05/06 06:23:37;;;;;;;4.53;3.63;;;;;;;13.25;59.96;101942.81;5103723;28;20058;-86
2022/05/06 06:26:08;;;;;;;2.63;2.50;;;;;;;13.34;58.10;101945.28;5106419;28;20097;-86
2022/05/06 06:28:39;;;;;;;2.63;2.42;;;;;;;13.26;61.42;101938.44;5118042;28;20042;-86
2022/05/06 06:31:09;;;;;;;5.32;4.85;;;;;;;13.34;58.17;101940.00;5088603;28;20023;-86
2022/05/06 06:33:40;;;;;;;4.68;3.72;;;;;;;13.35;59.60;101946.16;5092714;28;20272;-85
2022/05/06 06:36:11;;;;;;;12.43;5.00;;;;;;;13.43;59.72;101946.91;5132349;28;20034;-86
2022/05/06 06:38:43;;;;;;;16.30;6.95;;;;;;;13.53;60.02;101951.09;5091233;28;20448;-86
2022/05/06 06:41:13;;;;;;;7.22;2.95;;;;;;;13.51;58.91;101952.03;5122881;28;20110;-86
2022/05/06 06:43:44;;;;;;;6.68;2.30;;;;;;;13.53;59.65;101951.09;5105083;28;20049;-88
2022/05/06 06:46:15;;;;;;;4.50;3.60;;;;;;;13.64;58.48;101950.03;5092264;28;20033;-87
2022/05/06 06:48:46;;;;;;;3.58;3.28;;;;;;;13.66;62.40;101956.16;5117526;28;20047;-87
2022/05/06 06:51:16;;;;;;;3.45;3.15;;;;;;;13.65;60.20;101957.91;5093610;28;20034;-86
2022/05/06 06:53:48;;;;;;;3.47;2.80;;;;;;;13.53;63.21;101958.16;5097948;28;20089;-86
2022/05/06 06:56:20;;;;;;;3.03;2.78;;;;;;;13.67;60.59;101963.16;5099728;28;20023;-86
2022/05/06 06:58:50;;;;;;;4.60;4.22;;;;;;;13.74;61.99;101964.78;5088621;28;20035;-86
2022/05/06 07:01:21;;;;;;;4.20;3.65;;;;;;;13.53;64.89;101972.19;5105583;28;20453;-86
2022/05/06 07:03:51;;;;;;;9.05;3.95;;;;;;;13.69;61.84;101963.97;5108994;28;20026;-86
2022/05/06 07:12:00;;;;;;;2.55;2.35;;;;;;;13.65;62.58;101970.22;5103153;28;20033;-87
2022/05/06 07:14:30;;;;;;;5.65;5.13;;;;;;;13.72;63.39;101977.13;5104130;28;20039;-87
2022/05/06 07:17:05;;;;;;;9.10;3.25;;;;;;;13.72;61.67;101971.84;5098111;28;20496;-86
2022/05/06 07:19:35;;;;;;;6.72;3.95;;;;;;;13.76;63.47;101975.28;5088001;28;20065;-87
2022/05/06 07:22:06;;;;;;;2.53;2.33;;;;;;;13.89;62.98;101975.91;5080215;28;20114;-87
2022/05/06 07:24:37;;;;;;;11.90;3.42;;;;;;;13.81;63.48;101978.69;5080781;28;20411;-87
2022/05/06 07:27:08;;;;;;;2.33;2.13;;;;;;;13.93;62.05;101974.91;5085205;28;20082;-86
2022/05/06 07:29:39;;;;;;;5.50;3.13;;;;;;;13.95;61.79;101976.66;5082984;28;20102;-87
2022/05/06 07:32:10;;;;;;;7.55;4.65;;;;;;;13.89;63.80;101981.16;5110560;28;20031;-86
2022/05/06 07:34:40;;;;;;;4.57;4.10;;;;;;;14.01;62.41;101983.53;5079069;28;20122;-86
2022/05/06 07:37:11;;;;;;;3.88;3.33;;;;;;;13.93;64.63;101980.19;5084597;28;20060;-86
2022/05/06 07:39:41;;;;;;;6.25;3.33;;;;;;;13.76;65.12;101986.69;5113304;28;20291;-88
2022/05/06 07:42:12;;;;;;;3.20;2.65;;;;;;;13.85;65.93;101985.66;5113751;28;20097;-88
2022/05/06 07:44:42;;;;;;;6.28;4.55;;;;;;;13.79;65.75;101973.44;5077470;28;20556;-87
2022/05/06 07:47:13;;;;;;;6.25;3.50;;;;;;;13.87;66.34;101980.31;5077818;28;20110;-88
2022/05/06 07:49:43;;;;;;;5.95;4.00;;;;;;;14.03;63.37;101981.75;5106650;28;20034;-87
2022/05/06 07:52:14;;;;;;;5.45;3.97;;;;;;;14.13;65.06;101977.16;5098055;28;20077;-87
2022/05/06 07:54:44;;;;;;;3.03;2.53;;;;;;;14.19;64.41;101981.41;5098011;28;20045;-87
2022/05/06 07:57:15;;;;;;;5.07;4.40;;;;;;;14.22;64.16;101981.34;5085656;28;20031;-88
2022/05/06 07:59:45;;;;;;;6.50;3.58;;;;;;;14.14;64.81;101979.75;5116173;28;20446;-88
2022/05/06 08:05:05;;;;;;;3.42;3.10;;;;;;;14.05;65.30;101987.00;5094052;28;20042;-89
2022/05/06 08:07:36;;;;;;;6.63;4.07;;;;;;;14.14;65.01;101984.13;5081451;28;20045;-88
2022/05/06 08:10:08;;;;;;;3.53;3.13;;;;;;;14.22;65.00;101976.06;5115084;28;20201;-88
2022/05/06 08:12:38;;;;;;;2.85;2.65;;;;;;;14.01;66.05;101979.16;5099638;28;20027;-87
2022/05/06 08:15:09;;;;;;;3.42;3.03;;;;;;;14.23;63.88;101977.81;5099924;28;20478;-88
2022/05/06 08:17:40;;;;;;;9.15;4.97;;;;;;;14.14;64.84;101977.09;5116777;28;20077;-88
2022/05/06 08:20:10;;;;;;;5.22;2.10;;;;;;;14.29;63.55;101975.91;5078420;28;20047;-88
2022/05/06 08:22:41;;;;;;;2.47;2.25;;;;;;;14.37;62.68;101977.50;5116898;28;20031;-87
2022/05/06 08:25:12;;;;;;;2.80;2.60;;;;;;;14.50;63.50;101978.94;5081066;28;20054;-87
2022/05/06 08:27:44;;;;;;;6.60;3.55;;;;;;;14.29;63.44;101977.66;5096401;28;20133;-88
2022/05/06 08:30:14;;;;;;;2.28;2.08;;;;;;;14.42;64.26;101979.09;5078721;28;20042;-87
2022/05/06 08:32:48;;;;;;;4.75;4.38;;;;;;;14.50;63.18;101973.66;5083471;28;20023;-87
2022/05/06 08:35:22;;;;;;;8.90;2.85;;;;;;;14.66;62.33;101975.94;5098863;28;20046;-88
2022/05/06 08:37:53;;;;;;;3.60;2.80;;;;;;;14.67;61.66;101977.72;5083881;28;20617;-88
2022/05/06 08:40:31;;;;;;;3.20;2.72;;;;;;;14.73;62.51;101978.44;5096468;28;20065;-88
2022/05/06 08:43:04;;;;;;;14.73;10.25;;;;;;;14.71;63.47;101974.97;5086438;29;20071;-87
2022/05/06 08:51:17;;;;;;;5.20;4.80;;;;;;;14.83;63.39;101978.22;5100230;28;20397;-88
2022/05/06 08:53:48;;;;;;;3.50;3.20;;;;;;;14.86;64.18;101971.06;5098634;28;20034;-87
2022/05/06 08:56:18;;;;;;;5.15;3.75;;;;;;;14.81;64.74;101980.00;5100037;28;20085;-88
2022/05/06 08:58:49;;;;;;;3.85;2.40;;;;;;;14.89;63.71;101975.41;5112191;28;20031;-87
2022/05/06 09:01:23;;;;;;;5.78;3.13;;;;;;;14.91;63.89;101977.09;5088988;28;21055;-86
2022/05/06 09:03:55;;;;;;;3.53;2.35;;;;;;;14.95;63.31;101984.06;5096390;28;20065;-85
2022/05/06 09:06:28;;;;;;;6.03;3.45;;;;;;;15.07;62.87;101974.94;5090261;28;20023;-85
2022/05/06 09:09:00;;;;;;;4.43;2.97;;;;;;;15.04;62.97;101977.66;5089650;28;20039;-85
2022/05/06 09:16:39;;;;;;;8.85;4.38;;;;;;;15.08;63.38;101968.72;5115911;28;20054;-86
2022/05/06 09:17:22;;;;;;;4.15;3.75;;;;;;;15.07;63.38;101967.03;5102340;28;20035;-85
2022/05/06 09:19:53;;;;;;;3.00;2.78;;;;;;;15.25;61.80;101965.66;5097163;28;20643;-86
2022/05/06 09:22:27;;;;;;;7.50;2.85;;;;;;;15.33;61.45;101972.50;5113695;28;20046;-85
2022/05/06 09:24:58;;;;;;;10.48;4.78;;;;;;;15.46;61.44;101967.75;5085354;28;20042;-86
2022/05/06 09:27:28;;;;;;;4.65;3.15;;;;;;;15.46;61.64;101967.75;5090184;28;20041;-88
2022/05/06 09:30:10;;;;;;;6.13;2.15;;;;;;;15.42;61.95;101972.25;5086024;28;20035;-88
2022/05/06 09:32:40;;;;;;;11.45;3.30;;;;;;;15.48;62.27;101979.16;5093923;28;20131;-88
2022/05/06 09:35:13;;;;;;;11.77;5.07;;;;;;;15.62;61.18;101978.78;5084501;28;20434;-88
2022/05/06 09:37:48;;;;;;;;;;;;;;;15.60;62.04;101976.16;5082683;28;20669;-87
2022/05/06 09:40:37;;;;;;;9.05;5.18;;;;;;;15.62;61.41;101974.34;5087204;28;19922;-88
2022/05/06 09:43:19;;;;;;;4.18;3.78;;;;;;;15.74;61.89;101970.47;5109123;28;20040;-88
2022/05/06 09:45:52;;;;;;;3.67;3.03;;;;;;;15.76;61.21;101965.13;5103314;28;20244;-88
2022/05/06 09:48:23;;;;;;;2.90;2.63;;;;;;;15.84;60.59;101969.34;5079249;28;20126;-88
2022/05/06 09:50:53;;;;;;;5.53;3.47;;;;;;;15.86;60.57;101966.63;5112806;28;20537;-87
2022/05/06 09:53:24;;;;;;;3.60;2.97;;;;;;;15.94;59.70;101962.00;5082512;28;20138;-88
2022/05/06 09:55:55;;;;;;;2.70;2.50;;;;;;;15.90;59.39;101960.34;5100120;28;20254;-88
2022/05/06 09:58:25;;;;;;;6.50;3.08;;;;;;;16.10;58.84;101954.47;5086400;28;20049;-88
2022/05/06 10:00:56;;;;;;;3.08;2.58;;;;;;;16.07;58.38;101953.69;5102538;28;20027;-88
2022/05/06 10:03:26;;;;;;;3.40;3.17;;;;;;;16.11;57.98;101960.59;5101694;28;20035;-89
2022/05/06 10:05:57;;;;;;;3.40;3.10;;;;;;;16.25;57.20;101954.88;5086705;28;20023;-88
2022/05/06 10:08:30;;;;;;;5.65;3.40;;;;;;;16.25;57.07;101953.09;5085579;28;20105;-88
2022/05/06 10:11:04;;;;;;;4.35;2.08;;;;;;;16.40;56.63;101950.91;5083591;29;20027;-88
2022/05/06 10:13:35;;;;;;;;;;;;;;;16.36;55.77;101951.00;5090026;28;20449;-88
2022/05/06 10:16:06;;;;;;;8.63;1.45;;;;;;;16.36;56.27;101947.50;5102758;28;19932;-88
2022/05/06 10:18:39;;;;;;;2.78;2.58;;;;;;;16.48;56.37;101940.94;5101751;28;20039;-87
2022/05/06 10:21:11;;;;;;;3.83;2.58;;;;;;;16.51;56.27;101940.81;5088370;28;20038;-88
2022/05/06 10:23:41;;;;;;;1.77;1.70;;;;;;;16.65;57.16;101940.34;5085958;28;20313;-88
2022/05/06 10:26:34;;;;;;;5.13;3.15;;;;;;;16.74;56.76;101944.47;5087588;28;20449;-89
2022/05/06 10:35:00;;;;;;;3.25;2.67;;;;;;;16.91;55.84;101931.50;5115149;28;20539;-88
2022/05/06 10:37:39;;;;;;;3.50;2.88;;;;;;;16.97;55.54;101923.41;5081956;28;20061;-88
2022/05/06 10:40:22;;;;;;;2.83;2.63;;;;;;;17.15;54.58;101927.19;5099389;28;20041;-88
2022/05/06 10:42:53;;;;;;;3.63;3.33;;;;;;;17.13;54.19;101923.72;5101689;28;20027;-88
2022/05/06 10:45:30;;;;;;;2.10;1.98;;;;;;;17.28;52.71;101930.25;5092160;28;20035;-88
2022/05/06 10:48:01;;;;;;;3.95;2.67;;;;;;;17.38;52.98;101922.81;5082278;28;20086;-88
2022/05/06 10:50:39;;;;;;;3.03;2.78;;;;;;;17.50;53.36;101926.81;5083281;28;20118;-88
2022/05/06 10:53:32;;;;;;;4.10;2.28;;;;;;;17.51;53.76;101925.91;5100908;28;20081;-87
2022/05/06 10:56:03;;;;;;;3.65;3.05;;;;;;;17.67;52.23;101926.19;5110734;28;20126;-89
2022/05/06 10:58:33;;;;;;;2.10;1.90;;;;;;;17.58;52.29;101921.25;5108406;28;20181;-87
2022/05/06 11:01:04;;;;;;;2.95;2.50;;;;;;;17.65;52.38;101916.53;5089165;28;20038;-88
2022/05/06 11:03:34;;;;;;;5.55;2.55;;;;;;;17.81;52.26;101923.00;5101236;28;20178;-88
2022/05/06 11:06:07;;;;;;;2.30;2.05;;;;;;;17.81;52.08;101922.16;5086118;28;20031;-88
2022/05/06 11:08:37;;;;;;;5.80;3.50;;;;;;;17.80;52.91;101917.75;5100662;28;20823;-88
2022/05/06 11:11:19;;;;;;;3.95;2.85;;;;;;;17.80;52.39;101915.97;5088142;28;20735;-88
2022/05/06 11:13:52;;;;;;;2.97;2.50;;;;;;;17.79;52.50;101914.25;5096564;28;20561;-88
2022/05/06 11:16:22;;;;;;;3.92;3.22;;;;;;;17.83;52.19;101915.84;5106368;28;20022;-88
2022/05/06 11:18:53;;;;;;;3.60;3.25;;;;;;;17.90;52.59;101920.00;5088892;28;20041;-88
2022/05/06 11:21:24;;;;;;;5.28;4.72;;;;;;;17.87;52.21;101911.28;5115650;28;20414;-88
2022/05/06 11:23:55;;;;;;;5.55;3.45;;;;;;;17.94;52.93;101918.97;5092559;28;20465;-88
2022/05/06 11:26:31;;;;;;;4.55;2.47;;;;;;;18.04;52.84;101923.94;5095790;28;20089;-88
2022/05/06 11:29:02;;;;;;;6.03;4.25;;;;;;;18.21;53.13;101917.94;5084325;29;20043;-89
2022/05/06 11:31:33;;;;;;;1.30;1.30;;;;;;;18.11;53.27;101920.13;5108784;28;20735;-89
2022/05/06 11:34:05;;;;;;;2.65;2.40;;;;;;;18.11;53.29;101914.81;5087838;28;20046;-89
2022/05/06 11:36:35;;;;;;;5.13;3.20;;;;;;;18.20;53.00;101914.44;5104151;28;20058;-88
2022/05/06 11:39:11;;;;;;;2.45;2.30;;;;;;;18.36;52.17;101909.34;5093069;28;20086;-88
2022/05/06 11:41:41;;;;;;;3.33;3.03;;;;;;;18.27;52.90;101915.03;5056363;28;1246165;-87
2022/05/06 11:47:26;;;;;;;2.75;2.08;;;;;;;18.29;53.14;101909.69;5110776;28;20043;-88
2022/05/06 11:49:51;;;;;;;1.58;1.48;;;;;;;18.46;47.04;101904.53;5110483;28;20053;-89
2022/05/06 11:52:22;;;;;;;4.70;2.90;;;;;;;18.46;46.81;101899.22;5117041;28;20087;-89
2022/05/06 11:54:53;;;;;;;2.58;2.15;;;;;;;18.59;46.40;101896.91;5107884;28;20273;-88
2022/05/06 11:57:29;;;;;;;2.22;2.05;;;;;;;18.67;45.83;101896.59;5088731;28;20030;-88
2022/05/06 12:00:03;;;;;;;2.17;2.00;;;;;;;18.78;47.23;101885.47;5084054;29;20038;-88
2022/05/06 12:02:36;;;;;;;1.80;1.50;;;;;;;19.02;47.40;101883.59;5106653;28;20030;-88
2022/05/06 12:05:12;;;;;;;3.58;2.28;;;;;;;19.01;48.69;101879.19;5099211;28;20206;-88
2022/05/06 12:07:47;;;;;;;1.25;1.15;;;;;;;19.02;47.46;101881.78;5087276;28;20046;-88
2022/05/06 12:10:32;;;;;;;4.18;2.95;;;;;;;19.32;48.49;101877.81;5119493;28;20035;-87
2022/05/06 12:13:07;;;;;;;4.15;1.58;;;;;;;19.41;45.81;101887.19;5105030;29;20135;-87
2022/05/06 12:15:43;;;;;;;2.70;2.22;;;;;;;19.39;45.82;101871.25;5109795;28;20129;-88
2022/05/06 12:18:24;;;;;;;3.63;2.00;;;;;;;19.54;46.27;101876.84;5105428;28;20035;-90
2022/05/06 12:20:54;;;;;;;2.63;2.42;;;;;;;19.72;46.28;101870.63;5088192;28;20399;-88
2022/05/06 12:23:30;;;;;;;3.47;2.25;;;;;;;19.85;45.60;101865.59;5096562;28;20352;-88